Flight Track Log - Related Links

Times and Time Zones

All times are in EST time to prevent confusion due to time zone crossing. See the UPS300 flight status page for this flight to view local times or setup timezone preferences in your user account.

Time Position Orientation Groundspeed Altitude Reporting Facility
EST Latitude Longitude Course Direction KTS MPH feet Rate Location/Type
Fri 08:09:06 AM 30.1644 -97.6862 192° South 136 157 3,500  Level FlightAware ADS-B
Fri 08:09:09 AM 30.1628 -97.6873 211° Southwest 137 158 3,600 1,714 Climbing FlightAware ADS-B
Fri 08:09:13 AM 30.1609 -97.6891 219° Southwest 141 162 3,700 1,500 Climbing FlightAware ADS-B
Fri 08:09:17 AM 30.1592 -97.6916 232° Southwest 151 174 3,800 1,333 Climbing FlightAware ADS-B
Fri 08:09:22 AM 30.1575 -97.6954 243° Southwest 160 184 3,900 1,429 Climbing FlightAware ADS-B
Fri 08:09:38 AM 30.1527 -97.7084 247° West 186 214 4,300 1,556 Climbing FlightAware ADS-B
Fri 08:09:49 AM 30.1484 -97.7200 247° West 204 235 4,600 1,556 Climbing FlightAware ADS-B
Fri 08:10:05 AM 30.1414 -97.7367 244° Southwest 233 268 5,000 1,875 Climbing FlightAware ADS-B
Fri 08:10:21 AM 30.1334 -97.7557 244° Southwest 256 295 5,600 2,600 Climbing FlightAware ADS-B
Fri 08:10:35 AM 30.1259 -97.7734 244° Southwest 267 307 6,300 3,000 Climbing FlightAware ADS-B
Fri 08:10:51 AM 30.1174 -97.7935 244° Southwest 277 319 7,100 3,484 Climbing FlightAware ADS-B
Fri 08:11:06 AM 30.1085 -97.8143 244° Southwest 279 321 8,100 4,000 Climbing FlightAware ADS-B
Fri 08:11:21 AM 30.0998 -97.8344 243° Southwest 278 320 9,100 4,071 Climbing FlightAware ADS-B
Fri 08:11:34 AM 30.0925 -97.8516 244° Southwest 277 319 10,000 2,591 Climbing FlightAware ADS-B
Fri 08:12:05 AM 30.0750 -97.8948 245° Southwest 315 362 11,000 1,811 Climbing FlightAware ADS-B
Fri 08:12:27 AM 30.0604 -97.9307 245° Southwest 343 395 11,600 1,800 Climbing FlightAware ADS-B
Fri 08:12:35 AM 30.0540 -97.9438 241° Southwest 348 400 11,900 1,412 Climbing FlightAware ADS-B
Fri 08:12:44 AM 30.0462 -97.9571 236° Southwest 361 415 12,000 316 Climbing FlightAware ADS-B
Fri 08:13:13 AM 30.0128 -98.0007 229° Southwest 375 432 12,100 1,322 Climbing FlightAware ADS-B
Fri 08:13:43 AM 29.9768 -98.0438 226° Southwest 375 432 13,300 1,900 Climbing FlightAware ADS-B
Fri 08:14:13 AM 29.9399 -98.0886 226° Southwest 386 444 14,000 1,672 Climbing FlightAware ADS-B
Fri 08:14:44 AM 29.9031 -98.1343 227° Southwest 383 441 15,000 1,452 Climbing FlightAware ADS-B
Fri 08:15:15 AM 29.8659 -98.1812 228° Southwest 391 450 15,500 1,869 Climbing FlightAware ADS-B
Fri 08:15:45 AM 29.8290 -98.2289 228° Southwest 398 458 16,900 2,754 Climbing FlightAware ADS-B
Fri 08:16:16 AM 29.7912 -98.2772 228° Southwest 404 465 18,300 2,754 Climbing FlightAware ADS-B
Fri 08:16:46 AM 29.7522 -98.3262 227° Southwest 409 471 19,700 2,597 Climbing FlightAware ADS-B
Fri 08:17:23 AM 29.7045 -98.3856 227° Southwest 414 476 21,200 2,441 Climbing FlightAware ADS-B
Fri 08:17:45 AM 29.6736 -98.4191 223° Southwest 422 486 22,100 2,250 Climbing FlightAware ADS-B
Fri 08:18:11 AM 29.6330 -98.4552 218° Southwest 428 493 23,000 2,087 Climbing FlightAware ADS-B
Fri 08:18:31 AM 29.5987 -98.4804 213° Southwest 435 501 23,700 2,000 Climbing FlightAware ADS-B
Fri 08:18:56 AM 29.5540 -98.5070 207° Southwest 444 511 24,500 1,745 Climbing FlightAware ADS-B
Fri 08:19:26 AM 29.4970 -98.5363 204° Southwest 453 521 25,300 2,066 Climbing FlightAware ADS-B
Fri 08:19:57 AM 29.4375 -98.5669 204° Southwest 452 520 26,600 2,656 Climbing FlightAware ADS-B
Fri 08:20:27 AM 29.3805 -98.5960 204° Southwest 442 509 28,000 2,710 Climbing FlightAware ADS-B
Fri 08:20:59 AM 29.3215 -98.6261 204° Southwest 437 503 29,400 2,278 Climbing FlightAware ADS-B
Fri 08:21:46 AM 29.2354 -98.6699 204° Southwest 435 501 31,000 678 Climbing FlightAware ADS-B
Fri 08:24:49 AM 28.9037 -98.8377 204° Southwest 437 503 32,000 264 Climbing FlightAware ADS-B
Fri 08:25:33 AM 28.8247 -98.8775 204° Southwest 435 501 32,000  Level Houston Center
Fri 08:26:34 AM 28.7056 -98.9375 204° Southwest 435 501 32,000  Level Houston Center
Fri 08:32:01 AM 28.0972 -99.2412 204° Southwest 438 504 32,000  Level FlightAware ADS-B
Fri 08:32:19 AM 28.0684 -99.2554 204° Southwest 437 503 32,000  Level FlightAware ADS-B
Fri 08:33:45 AM 27.9231 -99.3272 204° Southwest 434 499 32,000  Level Houston Center
Fri 08:34:46 AM 27.8131 -99.3817 204° Southwest 435 501 32,000 -49 Level Houston Center
Fri 08:35:48 AM 27.7028 -99.4358 204° Southwest 437 503 31,900  Descending Houston Center
Fri 08:36:50 AM 27.5697 -99.5014 204° Southwest 437 503 32,000 49 Climbing Houston Center
Fri 08:37:51 AM 27.4586 -99.5553 203° Southwest 437 503 32,000  Level Houston Center
Fri 08:39:00 AM 27.3460 -99.5903 197° South  Level FlightAware Approximate
Fri 08:46:00 AM 26.6657 -99.8060 197° South  Level FlightAware Approximate
Fri 08:47:00 AM 26.5689 -99.8382 197° South  Level FlightAware Approximate
Fri 08:48:00 AM 26.4716 -99.8685 195° South  Level FlightAware Approximate
Fri 08:49:00 AM 26.3740 -99.8978 195° South  Level FlightAware Approximate
Fri 08:50:00 AM 26.2767 -99.9277 195° South  Level FlightAware Approximate
Fri 08:51:00 AM 26.1793 -99.9577 195° South  Level FlightAware Approximate
Fri 08:52:00 AM 26.0824 -99.9892 197° South  Level FlightAware Approximate
Fri 08:53:00 AM 25.9858 -100.0223 200° South  Level FlightAware Approximate
Fri 08:54:00 AM 25.8896 -100.0554 190° South  Level FlightAware Approximate
Fri 08:55:00 AM 25.7934 -100.0866 204° Southwest  Level FlightAware Approximate
Fri 08:56:00 AM 25.7667 -100.1000 North  Level FlightAware Approximate
Fri 08:57:00 AM 25.7785 -100.1069 North  Level Estimated

Login

Don't have an account? Register now (free) for customized features, flight alerts, and more!